createdAt,value
2022-09-03T00:02:02.335Z,0.70
2022-09-03T00:04:47.006Z,0.53
2022-09-03T00:07:19.641Z,0.60
2022-09-03T00:09:53.504Z,0.57
2022-09-03T00:12:23.800Z,0.60
2022-09-03T00:14:53.048Z,0.80
2022-09-03T00:17:23.210Z,0.60
2022-09-03T00:19:55.555Z,0.60
2022-09-03T00:22:26.810Z,0.70
2022-09-03T00:24:56.720Z,0.87
2022-09-03T00:27:26.673Z,0.90
2022-09-03T00:29:57.500Z,0.70
2022-09-03T00:32:29.363Z,0.70
2022-09-03T00:35:00.831Z,0.53
2022-09-03T00:37:27.551Z,0.90
2022-09-03T00:39:56.791Z,0.67
2022-09-03T00:42:37.094Z,0.60
2022-09-03T00:45:14.708Z,0.90
2022-09-03T00:47:55.293Z,0.70
2022-09-03T00:50:30.656Z,0.70
2022-09-03T00:53:04.285Z,0.60
2022-09-03T00:55:40.423Z,0.60
2022-09-03T00:58:38.849Z,0.70
2022-09-03T01:01:15.203Z,0.57
2022-09-03T01:03:48.089Z,0.60
2022-09-03T01:06:18.932Z,0.80
2022-09-03T01:09:13.439Z,0.60
2022-09-03T01:11:54.749Z,0.77
2022-09-03T01:14:36.455Z,0.60
2022-09-03T01:17:12.882Z,0.80
2022-09-03T01:20:08.714Z,0.70
2022-09-03T01:23:02.344Z,0.70
2022-09-03T01:25:42.751Z,0.63
2022-09-03T01:28:19.544Z,0.80
2022-09-03T01:30:53.023Z,0.83
2022-09-03T01:33:27.377Z,0.70
2022-09-03T01:36:03.167Z,0.70
2022-09-03T01:38:37.814Z,0.70
2022-09-03T01:41:15.196Z,0.80
2022-09-03T01:43:52.898Z,0.60
2022-09-03T01:46:24.471Z,0.67
2022-09-03T01:48:59.072Z,0.77
2022-09-03T01:51:29.377Z,0.70
2022-09-03T01:54:18.076Z,0.67
2022-09-03T01:57:05.468Z,0.90
2022-09-03T01:59:42.369Z,0.83
2022-09-03T02:02:13.477Z,0.70
2022-09-03T02:04:40.044Z,0.77
2022-09-03T02:07:07.009Z,0.80
2022-09-03T02:09:33.566Z,0.70
2022-09-03T02:12:06.962Z,0.70
2022-09-03T02:14:34.376Z,0.80
2022-09-03T02:17:03.268Z,0.67
2022-09-03T02:19:30.862Z,1.00
2022-09-03T02:21:58.043Z,0.70
2022-09-03T02:24:25.799Z,0.60
2022-09-03T02:26:53.395Z,0.70
2022-09-03T02:29:21.242Z,0.80
2022-09-03T02:31:47.816Z,0.60
2022-09-03T02:34:15.918Z,0.77
2022-09-03T02:36:45.208Z,0.70
2022-09-03T02:39:12.465Z,0.70
2022-09-03T02:41:39.306Z,0.60
2022-09-03T02:44:12.303Z,0.60
2022-09-03T02:46:41.359Z,0.70
2022-09-03T02:49:08.373Z,0.60
2022-09-03T02:51:38.836Z,0.70
2022-09-03T02:54:05.927Z,0.77
2022-09-03T02:56:32.539Z,0.80
2022-09-03T02:58:59.339Z,0.80
2022-09-03T03:01:26.476Z,0.70
2022-09-03T03:03:53.913Z,0.80
2022-09-03T03:06:20.483Z,1.00
2022-09-03T03:08:49.201Z,0.70
2022-09-03T03:11:17.124Z,0.60
2022-09-03T03:13:45.121Z,0.60
2022-09-03T03:16:12.908Z,0.60
2022-09-03T03:18:39.797Z,0.73
2022-09-03T03:21:07.457Z,0.73
2022-09-03T03:23:34.868Z,0.70
2022-09-03T03:26:03.457Z,0.80
2022-09-03T03:28:30.035Z,0.70
2022-09-03T03:30:56.569Z,0.60
2022-09-03T03:33:23.176Z,0.70
2022-09-03T03:35:50.139Z,0.80
2022-09-03T03:38:16.703Z,0.90
2022-09-03T03:40:43.224Z,0.60
2022-09-03T03:43:11.131Z,0.70
2022-09-03T03:45:37.678Z,0.77
2022-09-03T03:48:04.415Z,0.53
2022-09-03T03:50:30.972Z,0.60
2022-09-03T03:52:59.771Z,0.73
2022-09-03T03:55:27.026Z,0.80
2022-09-03T03:57:53.756Z,0.80
2022-09-03T04:00:21.653Z,0.80
2022-09-03T04:02:51.335Z,0.60
2022-09-03T04:05:17.875Z,0.70
2022-09-03T04:07:49.620Z,0.70
2022-09-03T04:10:16.330Z,0.63
2022-09-03T04:12:42.848Z,0.70
2022-09-03T04:15:10.259Z,0.90
2022-09-03T04:17:38.198Z,0.87
2022-09-03T04:20:05.545Z,0.50
2022-09-03T04:22:32.080Z,0.60
2022-09-03T04:24:58.665Z,0.93
2022-09-03T04:27:25.202Z,0.80
2022-09-03T04:29:51.743Z,0.80
2022-09-03T04:32:18.281Z,0.80
2022-09-03T04:34:46.225Z,0.70
2022-09-03T04:37:12.754Z,0.60
2022-09-03T04:39:39.311Z,0.80
2022-09-03T04:42:06.132Z,0.70
2022-09-03T04:44:32.660Z,0.87
2022-09-03T04:46:59.192Z,0.70
2022-09-03T04:49:25.700Z,0.70
2022-09-03T04:51:53.607Z,0.80
2022-09-03T04:54:20.265Z,0.63
2022-09-03T04:56:46.796Z,1.10
2022-09-03T04:59:13.391Z,0.73
2022-09-03T05:01:40.671Z,0.70
2022-09-03T05:04:08.120Z,0.70
2022-09-03T05:06:36.267Z,0.70
2022-09-03T05:09:05.388Z,0.77
2022-09-03T05:11:32.267Z,0.80
2022-09-03T05:13:59.901Z,0.70
2022-09-03T05:16:27.329Z,0.83
2022-09-03T05:18:55.219Z,0.70
2022-09-03T05:21:22.288Z,0.70
2022-09-03T05:23:50.594Z,0.73
2022-09-03T05:26:21.981Z,0.53
2022-09-03T05:28:48.816Z,0.80
2022-09-03T05:31:17.247Z,0.90
2022-09-03T05:33:46.190Z,0.80
2022-09-03T05:36:14.803Z,0.83
2022-09-03T05:38:42.361Z,0.70
2022-09-03T05:41:11.123Z,0.70
2022-09-03T05:43:39.637Z,0.70
2022-09-03T05:46:07.766Z,0.70
2022-09-03T05:48:35.861Z,0.70
2022-09-03T05:51:04.333Z,0.70
2022-09-03T05:53:33.109Z,0.90
2022-09-03T05:56:01.266Z,0.70
2022-09-03T05:58:30.844Z,0.70
2022-09-03T06:00:58.786Z,0.80
2022-09-03T06:03:25.579Z,0.80
2022-09-03T06:05:53.571Z,0.70
2022-09-03T06:08:20.454Z,0.80
2022-09-03T06:10:47.277Z,0.70
2022-09-03T06:13:14.087Z,0.93
2022-09-03T06:15:40.633Z,0.60
2022-09-03T06:18:08.529Z,0.60
2022-09-03T06:20:37.112Z,0.60
2022-09-03T06:23:04.104Z,0.77
2022-09-03T06:25:30.831Z,0.80
2022-09-03T06:27:57.561Z,0.80
2022-09-03T06:30:24.078Z,0.90
2022-09-03T06:32:50.621Z,0.60
2022-09-03T06:35:18.537Z,0.83
2022-09-03T06:37:45.082Z,0.60
2022-09-03T06:40:12.190Z,0.60
2022-09-03T06:42:38.739Z,0.67
2022-09-03T06:45:06.566Z,0.60
2022-09-03T06:47:38.644Z,0.70
2022-09-03T06:50:06.256Z,0.60
2022-09-03T06:52:34.136Z,0.70
2022-09-03T06:55:00.656Z,0.70
2022-09-03T06:57:27.207Z,0.60
2022-09-03T06:59:53.723Z,1.00
2022-09-03T07:02:20.317Z,0.77
2022-09-03T07:04:46.910Z,0.80
2022-09-03T07:07:14.996Z,0.63
2022-09-03T07:09:47.646Z,0.70
2022-09-03T07:12:14.835Z,0.60
2022-09-03T07:14:41.359Z,0.80
2022-09-03T07:17:09.462Z,0.60
2022-09-03T07:19:36.004Z,0.60
2022-09-03T07:22:02.543Z,0.60
2022-09-03T07:24:29.153Z,0.80
2022-09-03T07:26:57.056Z,0.80
2022-09-03T07:29:23.797Z,0.90
2022-09-03T07:31:51.998Z,0.67
2022-09-03T07:34:19.763Z,0.80
2022-09-03T07:36:49.052Z,0.70
2022-09-03T07:39:15.975Z,0.80
2022-09-03T07:41:43.883Z,0.80
2022-09-03T07:44:12.511Z,0.80
2022-09-03T07:46:39.181Z,0.97
2022-09-03T07:49:06.338Z,1.07
2022-09-03T07:51:35.180Z,0.90
2022-09-03T07:54:03.798Z,0.87
2022-09-03T07:56:30.846Z,0.80
2022-09-03T07:58:57.759Z,0.70
2022-09-03T08:01:27.411Z,0.80
2022-09-03T08:03:55.111Z,0.60
2022-09-03T08:06:23.181Z,0.60
2022-09-03T08:08:55.323Z,0.80
2022-09-03T08:11:21.841Z,0.63
2022-09-03T08:13:53.559Z,0.70
2022-09-03T08:16:20.455Z,0.70
2022-09-03T08:18:48.400Z,0.60
2022-09-03T08:21:17.920Z,0.73
2022-09-03T08:23:46.165Z,0.60
2022-09-03T08:26:14.483Z,0.83
2022-09-03T08:28:41.174Z,0.80
2022-09-03T08:31:09.114Z,0.70
2022-09-03T08:33:35.654Z,0.60
2022-09-03T08:36:04.514Z,0.73
2022-09-03T08:38:32.423Z,0.73
2022-09-03T08:41:06.919Z,0.80
2022-09-03T08:43:37.343Z,0.70
2022-09-03T08:46:04.015Z,0.87
2022-09-03T08:48:32.007Z,0.80
2022-09-03T08:50:59.731Z,0.70
2022-09-03T08:53:35.994Z,0.70
2022-09-03T08:56:07.587Z,0.67
2022-09-03T08:58:36.633Z,0.70
2022-09-03T09:01:12.409Z,0.87
2022-09-03T09:03:56.837Z,1.00
2022-09-03T09:06:28.889Z,0.80
2022-09-03T09:09:04.844Z,0.80
2022-09-03T09:11:43.611Z,0.70
2022-09-03T09:14:18.826Z,0.70
2022-09-03T09:16:50.915Z,0.70
2022-09-03T09:19:37.596Z,0.83
2022-09-03T09:22:10.126Z,0.80
2022-09-03T09:24:41.865Z,0.70
2022-09-03T09:27:10.836Z,1.00
2022-09-03T09:29:41.223Z,1.00
2022-09-03T09:32:10.160Z,0.83
2022-09-03T09:34:38.047Z,0.90
2022-09-03T09:37:07.988Z,0.90
2022-09-03T09:39:34.563Z,0.87
2022-09-03T09:42:06.064Z,1.37
2022-09-03T09:44:32.606Z,1.30
2022-09-03T09:47:04.555Z,1.30
2022-09-03T09:49:33.744Z,1.17
2022-09-03T09:52:01.995Z,1.20
2022-09-03T09:54:28.577Z,1.17
2022-09-03T09:56:59.997Z,1.10
2022-09-03T09:59:28.050Z,0.87
2022-09-03T10:02:07.728Z,1.00
2022-09-03T10:04:34.431Z,1.17
2022-09-03T10:07:16.254Z,1.03
2022-09-03T10:09:42.810Z,1.27
2022-09-03T10:12:16.496Z,1.30
2022-09-03T10:14:47.742Z,1.33
2022-09-03T10:17:19.768Z,1.03
2022-09-03T10:19:55.394Z,1.07
2022-09-03T10:22:23.249Z,1.03
2022-09-03T10:24:57.843Z,0.87
2022-09-03T10:27:24.512Z,1.20
2022-09-03T10:29:52.587Z,1.10
2022-09-03T10:32:37.841Z,1.00
2022-09-03T10:35:27.715Z,1.20
2022-09-03T10:38:05.633Z,1.03
2022-09-03T10:40:37.950Z,1.67
2022-09-03T10:43:24.268Z,1.40
2022-09-03T10:46:02.166Z,1.07
2022-09-03T10:48:50.825Z,1.23
2022-09-03T10:51:19.863Z,1.40
2022-09-03T10:54:06.029Z,1.07
2022-09-03T10:56:40.233Z,1.10
2022-09-03T10:59:32.114Z,1.10
2022-09-03T11:02:13.102Z,1.20
2022-09-03T11:04:46.878Z,1.00
2022-09-03T11:07:14.142Z,1.30
2022-09-03T11:09:45.149Z,1.00
2022-09-03T11:12:16.651Z,1.03
2022-09-03T11:14:46.913Z,1.07
2022-09-03T11:17:20.232Z,0.90
2022-09-03T11:19:50.874Z,0.97
2022-09-03T11:22:20.803Z,1.40
2022-09-03T11:24:56.675Z,1.07
2022-09-03T11:27:35.797Z,1.13
2022-09-03T11:30:05.764Z,0.90
2022-09-03T11:32:44.871Z,1.00
2022-09-03T11:35:16.669Z,1.20
2022-09-03T11:37:52.826Z,1.17
2022-09-03T11:40:19.507Z,1.40
2022-09-03T11:42:46.457Z,1.00
2022-09-03T11:45:21.202Z,0.87
2022-09-03T11:47:49.705Z,1.13
2022-09-03T11:50:20.663Z,1.20
2022-09-03T11:52:48.234Z,0.87
2022-09-03T11:55:31.151Z,1.30
2022-09-03T11:58:16.307Z,1.10
2022-09-03T12:00:43.400Z,1.00
2022-09-03T12:03:15.474Z,1.23
2022-09-03T12:05:51.509Z,1.40
2022-09-03T12:08:50.887Z,1.00
2022-09-03T12:11:42.828Z,1.00
2022-09-03T12:14:16.466Z,1.00
2022-09-03T12:17:02.635Z,1.00
2022-09-03T12:19:37.806Z,1.00
2022-09-03T12:22:05.011Z,1.17
2022-09-03T12:24:34.680Z,0.90
2022-09-03T12:27:04.247Z,0.90
2022-09-03T12:29:31.875Z,0.80
2022-09-03T12:32:07.405Z,0.80
2022-09-03T12:34:35.325Z,1.00
2022-09-03T12:37:02.004Z,1.00
2022-09-03T12:42:20.695Z,0.90
2022-09-03T12:44:47.300Z,0.90
2022-09-03T12:50:08.721Z,0.93
2022-09-03T12:52:38.802Z,1.20
2022-09-03T12:55:12.874Z,1.30
2022-09-03T12:57:43.714Z,1.20
2022-09-03T13:00:15.291Z,1.00
2022-09-03T13:02:50.938Z,0.80
2022-09-03T13:05:21.493Z,1.00
2022-09-03T13:07:50.372Z,0.90
2022-09-03T13:10:25.580Z,1.03
2022-09-03T13:12:53.630Z,1.00
2022-09-03T13:15:23.363Z,0.73
2022-09-03T13:18:02.682Z,1.13
2022-09-03T13:20:37.301Z,1.20
2022-09-03T13:23:24.241Z,1.00
2022-09-03T13:26:00.689Z,1.10
2022-09-03T13:28:46.227Z,1.00
2022-09-03T13:31:26.115Z,1.30
2022-09-03T13:33:59.220Z,1.13
2022-09-03T13:36:31.552Z,0.90
2022-09-03T13:39:00.865Z,0.90
2022-09-03T13:41:37.093Z,1.10
2022-09-03T13:44:08.073Z,0.80
2022-09-03T13:46:42.330Z,0.90
2022-09-03T13:49:27.769Z,1.30
2022-09-03T13:51:59.695Z,0.90
2022-09-03T13:54:48.743Z,0.90
2022-09-03T13:57:27.594Z,0.87
2022-09-03T13:59:58.063Z,0.90
2022-09-03T14:02:33.194Z,1.00
2022-09-03T14:05:06.399Z,0.90
2022-09-03T14:07:48.239Z,0.90
2022-09-03T14:10:22.485Z,0.80
2022-09-03T14:13:00.220Z,0.70
2022-09-03T14:15:31.637Z,0.87
2022-09-03T14:18:08.263Z,0.83
2022-09-03T14:20:43.752Z,0.80
2022-09-03T14:23:29.525Z,0.90
2022-09-03T14:25:57.379Z,0.97
2022-09-03T14:28:31.159Z,0.80
2022-09-03T14:31:07.773Z,0.90
2022-09-03T14:33:41.568Z,0.90
2022-09-03T14:36:21.544Z,0.87
2022-09-03T14:39:11.501Z,0.87
2022-09-03T14:42:01.483Z,0.90
2022-09-03T14:44:50.532Z,0.90
2022-09-03T14:47:32.982Z,0.80
2022-09-03T14:50:27.930Z,1.00
2022-09-03T14:53:13.417Z,1.00
2022-09-03T14:56:03.027Z,0.90
2022-09-03T14:59:02.303Z,0.80
2022-09-03T15:01:35.648Z,0.70
2022-09-03T15:04:49.983Z,0.90
2022-09-03T15:07:28.644Z,0.90
2022-09-03T15:10:03.621Z,0.83
2022-09-03T15:12:37.079Z,0.93
2022-09-03T15:15:10.889Z,0.90
2022-09-03T15:17:49.999Z,0.73
2022-09-03T15:20:23.846Z,1.17
2022-09-03T15:23:20.406Z,0.67
2022-09-03T15:26:05.774Z,1.00
2022-09-03T15:28:41.365Z,0.77
2022-09-03T15:31:18.171Z,1.00
2022-09-03T15:33:50.412Z,1.10
2022-09-03T15:36:21.349Z,0.80
2022-09-03T15:38:55.373Z,1.00
2022-09-03T15:41:30.977Z,0.80
2022-09-03T15:44:01.344Z,0.80
2022-09-03T15:46:37.424Z,0.80
2022-09-03T15:49:09.466Z,0.87
2022-09-03T15:51:42.055Z,0.80
2022-09-03T15:54:14.784Z,0.90
2022-09-03T15:56:47.509Z,0.77
2022-09-03T15:59:20.813Z,0.90
2022-09-03T16:01:54.357Z,0.90
2022-09-03T16:04:42.892Z,0.70
2022-09-03T16:07:16.340Z,0.80
2022-09-03T16:10:20.257Z,0.90
2022-09-03T16:12:47.710Z,0.73
2022-09-03T16:15:20.516Z,0.90
2022-09-03T16:17:54.670Z,0.90
2022-09-03T16:20:26.704Z,0.90
2022-09-03T16:23:00.142Z,1.00
2022-09-03T16:25:30.892Z,1.00
2022-09-03T16:28:09.001Z,1.00
2022-09-03T16:30:52.315Z,0.90
2022-09-03T16:33:26.816Z,1.03
2022-09-03T16:36:02.346Z,0.70
2022-09-03T16:38:40.109Z,0.90
2022-09-03T16:41:18.981Z,1.00
2022-09-03T16:43:57.476Z,0.93
2022-09-03T16:46:34.439Z,0.83
2022-09-03T16:49:12.641Z,0.70
2022-09-03T16:51:45.675Z,0.93
2022-09-03T16:54:34.697Z,0.90
2022-09-03T16:57:11.728Z,0.90
2022-09-03T17:00:06.195Z,0.67
2022-09-03T17:02:51.937Z,0.87
2022-09-03T17:05:44.553Z,0.90
2022-09-03T17:08:22.909Z,0.77
2022-09-03T17:10:53.608Z,1.20
2022-09-03T17:13:45.316Z,0.87
2022-09-03T17:16:21.809Z,0.80
2022-09-03T17:19:01.776Z,0.90
2022-09-03T17:21:39.574Z,0.87
2022-09-03T17:24:33.545Z,0.77
2022-09-03T17:27:11.875Z,0.80
2022-09-03T17:29:55.698Z,1.13
2022-09-03T17:32:37.292Z,1.00
2022-09-03T17:35:12.607Z,1.10
2022-09-03T17:37:55.167Z,1.10
2022-09-03T17:40:28.511Z,0.80
2022-09-03T17:43:03.629Z,1.17
2022-09-03T17:45:39.266Z,1.23
2022-09-03T17:48:29.782Z,1.20
2022-09-03T17:51:03.301Z,1.00
2022-09-03T17:53:36.971Z,1.00
2022-09-03T17:56:08.510Z,1.10
2022-09-03T17:58:41.132Z,0.90
2022-09-03T18:01:15.054Z,1.00
2022-09-03T18:03:47.380Z,1.20
2022-09-03T18:06:26.422Z,1.03
2022-09-03T18:08:59.304Z,0.90
2022-09-03T18:11:34.171Z,0.97
2022-09-03T18:14:09.160Z,1.33
2022-09-03T18:16:39.500Z,1.50
2022-09-03T18:19:12.418Z,2.07
2022-09-03T18:21:40.553Z,2.10
2022-09-03T18:24:23.574Z,2.00
2022-09-03T18:26:59.831Z,1.20
2022-09-03T18:29:33.890Z,1.00
2022-09-03T18:32:00.848Z,0.90
2022-09-03T18:34:30.740Z,0.70
2022-09-03T18:36:59.635Z,0.90
2022-09-03T18:39:28.174Z,0.80
2022-09-03T18:42:05.244Z,0.80
2022-09-03T18:44:48.736Z,0.97
2022-09-03T18:50:24.223Z,0.70
2022-09-03T18:52:56.971Z,0.80
2022-09-03T18:55:37.908Z,0.73
2022-09-03T18:58:15.759Z,0.80
2022-09-03T19:00:58.746Z,0.60
2022-09-03T19:03:38.656Z,0.70
2022-09-03T19:06:16.838Z,0.70
2022-09-03T19:08:56.835Z,0.60
2022-09-03T19:11:29.803Z,0.70
2022-09-03T19:14:00.992Z,0.63
2022-09-03T19:16:42.989Z,0.60
2022-09-03T19:19:28.262Z,0.60
2022-09-03T19:21:59.952Z,0.67
2022-09-03T19:24:30.314Z,0.70
2022-09-03T19:27:14.052Z,0.50
2022-09-03T19:30:01.596Z,0.50
2022-09-03T19:32:41.359Z,0.40
2022-09-03T19:35:17.566Z,0.30
2022-09-03T19:37:59.115Z,0.30
2022-09-03T19:40:40.762Z,0.40
2022-09-03T19:43:15.530Z,0.40
2022-09-03T19:45:56.234Z,0.30
2022-09-03T19:48:32.496Z,0.40
2022-09-03T19:51:08.250Z,0.30
2022-09-03T19:53:35.601Z,0.40
2022-09-03T19:56:09.412Z,0.33
2022-09-03T19:58:44.398Z,0.33
2022-09-03T20:01:12.144Z,0.40
2022-09-03T20:03:39.074Z,0.47
2022-09-03T20:06:10.978Z,0.40
2022-09-03T20:08:38.104Z,0.40
2022-09-03T20:11:09.076Z,0.40
2022-09-03T20:13:39.351Z,0.37
2022-09-03T20:16:14.105Z,0.30
2022-09-03T20:18:50.746Z,0.50
2022-09-03T20:21:24.902Z,0.37
2022-09-03T20:23:59.770Z,0.50
2022-09-03T20:26:38.856Z,0.50
2022-09-03T20:29:31.993Z,0.70
2022-09-03T20:32:08.050Z,0.80
2022-09-03T20:34:45.941Z,0.90
2022-09-03T20:37:21.129Z,0.70
2022-09-03T20:40:02.215Z,0.70
2022-09-03T20:43:02.251Z,0.70
2022-09-03T20:45:40.097Z,0.80
2022-09-03T20:48:13.677Z,0.73
2022-09-03T20:50:48.274Z,0.80
2022-09-03T20:53:30.061Z,0.80
2022-09-03T20:56:01.250Z,0.60
2022-09-03T20:58:34.525Z,0.57
2022-09-03T21:01:06.227Z,0.90
2022-09-03T21:03:43.311Z,0.77
2022-09-03T21:06:22.613Z,0.87
2022-09-03T21:09:02.676Z,0.80
2022-09-03T21:11:37.818Z,0.90
2022-09-03T21:14:13.454Z,0.90
2022-09-03T21:16:52.841Z,0.87
2022-09-03T21:19:36.262Z,0.80
2022-09-03T21:22:10.804Z,0.87
2022-09-03T21:24:51.565Z,1.00
2022-09-03T21:27:20.903Z,1.13
2022-09-03T21:29:57.629Z,1.00
2022-09-03T21:32:33.327Z,0.90
2022-09-03T21:35:06.248Z,0.80
2022-09-03T21:37:36.429Z,0.60
2022-09-03T21:40:07.965Z,0.60
2022-09-03T21:42:38.923Z,0.50
2022-09-03T21:45:11.976Z,0.57
2022-09-03T21:47:44.856Z,0.60
2022-09-03T21:50:17.299Z,0.67
2022-09-03T21:52:51.218Z,0.60
2022-09-03T21:55:21.888Z,0.50
2022-09-03T21:58:02.169Z,0.60
2022-09-03T22:00:29.379Z,0.60
2022-09-03T22:02:57.391Z,0.73
2022-09-03T22:05:24.427Z,0.87
2022-09-03T22:08:14.992Z,0.80
2022-09-03T22:10:52.758Z,0.70
2022-09-03T22:13:28.264Z,0.60
2022-09-03T22:16:00.263Z,0.80
2022-09-03T22:18:30.660Z,0.77
2022-09-03T22:21:04.942Z,0.90
2022-09-03T22:23:43.673Z,0.80
2022-09-03T22:26:22.978Z,0.80
2022-09-03T22:29:01.024Z,0.70
2022-09-03T22:31:39.947Z,0.60
2022-09-03T22:34:26.006Z,0.67
2022-09-03T22:37:00.948Z,0.60
2022-09-03T22:39:36.629Z,0.70
2022-09-03T22:42:34.561Z,0.70
2022-09-03T22:45:28.304Z,0.60
2022-09-03T22:48:09.142Z,0.80
2022-09-03T22:50:49.212Z,0.70
2022-09-03T22:53:28.555Z,0.70
2022-09-03T22:56:02.788Z,0.70
2022-09-03T22:58:33.332Z,0.67
2022-09-03T23:01:06.532Z,0.80
2022-09-03T23:03:39.358Z,0.70
2022-09-03T23:06:13.996Z,0.80
2022-09-03T23:08:47.567Z,0.70
2022-09-03T23:11:22.540Z,0.80
2022-09-03T23:13:54.910Z,0.60
2022-09-03T23:16:29.299Z,0.80
2022-09-03T23:18:57.840Z,0.80
2022-09-03T23:21:33.832Z,0.80
2022-09-03T23:24:07.462Z,0.70
2022-09-03T23:26:38.614Z,0.80
2022-09-03T23:29:12.305Z,0.80
2022-09-03T23:31:39.163Z,0.90
2022-09-03T23:34:08.026Z,0.87
2022-09-03T23:37:16.142Z,1.00
2022-09-03T23:39:56.298Z,0.97
2022-09-03T23:42:31.004Z,0.97
2022-09-03T23:45:08.556Z,1.00
2022-09-03T23:47:46.839Z,1.10
2022-09-03T23:50:28.723Z,1.00
2022-09-03T23:53:12.688Z,0.80
2022-09-03T23:55:53.799Z,0.70
2022-09-03T23:58:36.898Z,0.90
